createdAt,value
2023-08-17T00:01:12.372Z,16.36
2023-08-17T00:03:38.908Z,16.43
2023-08-17T00:06:05.432Z,16.49
2023-08-17T00:08:32.343Z,16.18
2023-08-17T00:10:58.781Z,16.30
2023-08-17T00:13:25.217Z,16.34
2023-08-17T00:15:51.694Z,16.40
2023-08-17T00:18:18.153Z,16.40
2023-08-17T00:20:45.379Z,16.48
2023-08-17T00:23:11.939Z,16.53
2023-08-17T00:25:38.491Z,16.66
2023-08-17T00:28:05.371Z,16.71
2023-08-17T00:30:31.826Z,16.61
2023-08-17T00:32:58.322Z,16.71
2023-08-17T00:35:24.790Z,16.79
2023-08-17T00:37:51.257Z,16.83
2023-08-17T00:40:17.804Z,16.92
2023-08-17T00:42:44.317Z,16.94
2023-08-17T00:45:10.989Z,17.14
2023-08-17T00:47:37.649Z,16.98
2023-08-17T00:50:04.825Z,17.03
2023-08-17T00:52:33.188Z,17.02
2023-08-17T00:55:01.892Z,17.05
2023-08-17T00:57:28.793Z,17.13
2023-08-17T01:00:04.709Z,17.14
2023-08-17T01:02:32.678Z,17.23
2023-08-17T01:04:59.648Z,17.20
2023-08-17T01:07:26.313Z,17.23
2023-08-17T01:09:53.232Z,17.13
2023-08-17T01:13:02.973Z,17.06
2023-08-17T01:15:36.326Z,16.96
2023-08-17T01:18:23.934Z,17.01
2023-08-17T01:20:52.900Z,16.91
2023-08-17T01:23:19.594Z,17.01
2023-08-17T01:25:46.417Z,17.01
2023-08-17T01:28:12.900Z,17.03
2023-08-17T01:30:50.841Z,16.92
2023-08-17T01:33:25.285Z,17.02
2023-08-17T01:36:00.571Z,17.08
2023-08-17T01:38:30.276Z,16.99
2023-08-17T01:40:58.131Z,17.16
2023-08-17T01:43:24.834Z,17.06
2023-08-17T01:45:51.610Z,16.99
2023-08-17T01:48:18.082Z,16.91
2023-08-17T01:50:44.528Z,16.88
2023-08-17T01:53:11.126Z,16.87
2023-08-17T01:55:37.678Z,16.88
2023-08-17T01:58:04.379Z,16.68
2023-08-17T02:00:30.874Z,16.66
2023-08-17T02:02:57.407Z,16.78
2023-08-17T02:05:23.864Z,16.83
2023-08-17T02:07:50.292Z,16.87
2023-08-17T02:10:16.787Z,16.86
2023-08-17T02:12:43.244Z,16.93
2023-08-17T02:15:10.186Z,17.07
2023-08-17T02:17:36.600Z,17.01
2023-08-17T02:20:04.936Z,16.99
2023-08-17T02:22:31.378Z,16.96
2023-08-17T02:24:58.031Z,16.98
2023-08-17T02:27:24.616Z,17.02
2023-08-17T02:29:51.401Z,17.13
2023-08-17T02:32:17.865Z,17.25
2023-08-17T02:34:44.381Z,17.21
2023-08-17T02:37:10.976Z,17.16
2023-08-17T02:39:37.428Z,17.17
2023-08-17T02:42:04.000Z,17.31
2023-08-17T02:44:30.425Z,17.39
2023-08-17T02:46:56.883Z,17.46
2023-08-17T02:49:23.493Z,17.33
2023-08-17T02:51:49.924Z,17.43
2023-08-17T02:54:16.359Z,17.45
2023-08-17T02:56:42.782Z,17.41
2023-08-17T02:59:09.255Z,17.39
2023-08-17T03:01:36.513Z,17.37
2023-08-17T03:04:03.144Z,17.41
2023-08-17T03:06:29.567Z,17.33
2023-08-17T03:08:56.045Z,17.49
2023-08-17T03:11:22.519Z,17.49
2023-08-17T03:13:49.638Z,17.38
2023-08-17T03:16:16.799Z,17.40
2023-08-17T03:18:45.842Z,17.43
2023-08-17T03:21:12.584Z,17.42
2023-08-17T03:23:39.096Z,17.43
2023-08-17T03:26:05.739Z,17.33
2023-08-17T03:28:32.215Z,17.35
2023-08-17T03:30:58.799Z,17.39
2023-08-17T03:33:25.296Z,17.57
2023-08-17T03:35:51.863Z,17.37
2023-08-17T03:38:18.298Z,17.45
2023-08-17T03:40:44.866Z,17.22
2023-08-17T03:43:11.794Z,17.27
2023-08-17T03:45:38.222Z,17.43
2023-08-17T03:48:05.298Z,17.29
2023-08-17T03:50:31.749Z,17.42
2023-08-17T03:52:58.193Z,17.43
2023-08-17T03:55:24.643Z,17.38
2023-08-17T03:57:51.085Z,17.30
2023-08-17T04:00:17.653Z,17.20
2023-08-17T04:02:44.389Z,17.42
2023-08-17T04:05:10.920Z,17.31
2023-08-17T04:07:38.068Z,17.46
2023-08-17T04:10:06.831Z,17.46
2023-08-17T04:12:33.261Z,17.47
2023-08-17T04:15:00.126Z,17.40
2023-08-17T04:17:27.215Z,17.34
2023-08-17T04:19:54.167Z,17.48
2023-08-17T04:22:20.696Z,17.39
2023-08-17T04:24:47.138Z,17.48
2023-08-17T04:27:15.253Z,17.45
2023-08-17T04:29:41.693Z,17.62
2023-08-17T04:32:08.131Z,17.71
2023-08-17T04:34:34.728Z,17.50
2023-08-17T04:37:01.219Z,17.44
2023-08-17T04:39:27.672Z,17.73
2023-08-17T04:41:54.137Z,17.73
2023-08-17T04:44:20.548Z,17.70
2023-08-17T04:46:46.979Z,17.77
2023-08-17T04:49:13.448Z,17.91
2023-08-17T04:51:39.867Z,17.97
2023-08-17T04:54:06.314Z,17.96
2023-08-17T04:56:32.786Z,18.01
2023-08-17T04:58:59.212Z,17.99
2023-08-17T05:01:25.734Z,17.74
2023-08-17T05:03:52.855Z,17.69
2023-08-17T05:06:19.439Z,17.85
2023-08-17T05:08:45.931Z,17.90
2023-08-17T05:11:12.499Z,18.02
2023-08-17T05:13:39.447Z,17.86
2023-08-17T05:16:06.361Z,18.11
2023-08-17T05:18:32.896Z,18.14
2023-08-17T05:20:59.313Z,18.15
2023-08-17T05:23:25.787Z,18.08
2023-08-17T05:25:52.274Z,18.09
2023-08-17T05:28:18.717Z,18.04
2023-08-17T05:30:45.205Z,17.92
2023-08-17T05:33:11.771Z,18.08
2023-08-17T05:35:38.237Z,18.24
2023-08-17T05:38:04.898Z,18.37
2023-08-17T05:40:31.954Z,18.25
2023-08-17T05:42:58.405Z,18.30
2023-08-17T05:45:24.907Z,18.33
2023-08-17T05:47:53.083Z,18.24
2023-08-17T05:50:19.650Z,18.18
2023-08-17T05:52:46.162Z,18.39
2023-08-17T05:55:12.649Z,18.31
2023-08-17T05:57:39.123Z,18.33
2023-08-17T06:00:06.276Z,18.27
2023-08-17T06:02:32.775Z,18.37
2023-08-17T06:04:59.227Z,18.37
2023-08-17T06:07:26.024Z,18.48
2023-08-17T06:09:52.649Z,18.54
2023-08-17T06:12:20.077Z,18.41
2023-08-17T06:14:46.609Z,18.77
2023-08-17T06:17:13.038Z,19.05
2023-08-17T06:19:40.935Z,19.10
2023-08-17T06:22:07.380Z,19.10
2023-08-17T06:24:34.286Z,19.17
2023-08-17T06:27:00.752Z,19.32
2023-08-17T06:29:27.219Z,19.46
2023-08-17T06:31:53.770Z,19.53
2023-08-17T06:34:20.222Z,19.35
2023-08-17T06:36:58.003Z,19.53
2023-08-17T06:39:24.446Z,19.04
2023-08-17T06:41:51.064Z,19.31
2023-08-17T06:44:17.514Z,19.02
2023-08-17T06:46:44.042Z,18.97
2023-08-17T06:49:12.003Z,18.76
2023-08-17T06:51:38.471Z,18.56
2023-08-17T06:54:05.943Z,18.92
2023-08-17T06:56:32.462Z,18.97
2023-08-17T06:58:58.938Z,19.05
2023-08-17T07:01:25.395Z,18.95
2023-08-17T07:03:51.840Z,19.18
2023-08-17T07:06:18.933Z,19.25
2023-08-17T07:08:45.362Z,19.31
2023-08-17T07:11:11.976Z,19.39
2023-08-17T07:13:38.409Z,19.06
2023-08-17T07:16:05.167Z,19.21
2023-08-17T07:18:31.701Z,19.35
2023-08-17T07:20:59.078Z,19.19
2023-08-17T07:23:26.004Z,19.28
2023-08-17T07:25:52.438Z,19.42
2023-08-17T07:28:18.887Z,19.80
2023-08-17T07:30:45.409Z,19.77
2023-08-17T07:33:12.228Z,19.69
2023-08-17T07:35:38.675Z,19.64
2023-08-17T07:38:09.355Z,19.53
2023-08-17T07:40:36.806Z,19.33
2023-08-17T07:43:03.497Z,19.44
2023-08-17T07:45:29.942Z,19.09
2023-08-17T07:47:56.461Z,19.11
2023-08-17T07:50:23.096Z,19.20
2023-08-17T07:52:49.678Z,19.37
2023-08-17T07:55:16.186Z,19.41
2023-08-17T07:57:42.626Z,19.53
2023-08-17T08:00:09.379Z,19.33
2023-08-17T08:02:36.008Z,19.45
2023-08-17T08:05:03.692Z,19.50
2023-08-17T08:07:30.282Z,19.50
2023-08-17T08:09:56.816Z,19.66
2023-08-17T08:12:23.306Z,19.63
2023-08-17T08:14:50.319Z,19.83
2023-08-17T08:17:16.720Z,19.91
2023-08-17T08:19:43.289Z,19.85
2023-08-17T08:22:09.707Z,20.15
2023-08-17T08:24:38.391Z,20.15
2023-08-17T08:27:06.006Z,20.04
2023-08-17T08:29:32.541Z,19.94
2023-08-17T08:32:00.804Z,19.95
2023-08-17T08:34:27.415Z,19.95
2023-08-17T08:36:53.870Z,19.81
2023-08-17T08:39:20.314Z,19.97
2023-08-17T08:41:46.830Z,20.11
2023-08-17T08:44:13.416Z,20.06
2023-08-17T08:46:44.231Z,20.08
2023-08-17T08:49:12.579Z,19.71
2023-08-17T08:51:45.773Z,19.71
2023-08-17T08:54:15.419Z,19.93
2023-08-17T08:56:47.861Z,19.67
2023-08-17T08:59:15.384Z,19.99
2023-08-17T09:01:42.859Z,20.05
2023-08-17T09:04:09.646Z,19.84
2023-08-17T09:06:37.153Z,19.53
2023-08-17T09:09:03.713Z,19.56
2023-08-17T09:11:31.167Z,19.72
2023-08-17T09:13:57.762Z,19.87
2023-08-17T09:16:25.891Z,19.70
2023-08-17T09:18:54.246Z,19.79
2023-08-17T09:21:22.957Z,19.94
2023-08-17T09:24:00.539Z,19.87
2023-08-17T09:26:32.511Z,19.49
2023-08-17T09:29:00.122Z,19.38
2023-08-17T09:31:26.776Z,19.66
2023-08-17T09:33:54.162Z,19.80
2023-08-17T09:36:24.099Z,19.70
2023-08-17T09:38:52.516Z,19.63
2023-08-17T09:41:20.157Z,19.77
2023-08-17T09:43:47.491Z,19.66
2023-08-17T09:46:14.197Z,19.76
2023-08-17T09:48:40.784Z,19.78
2023-08-17T09:51:07.824Z,19.73
2023-08-17T09:53:38.158Z,19.77
2023-08-17T09:56:06.212Z,19.93
2023-08-17T09:58:32.669Z,19.77
2023-08-17T10:01:03.561Z,19.99
2023-08-17T10:03:33.513Z,19.67
2023-08-17T10:06:08.034Z,19.51
2023-08-17T10:08:41.189Z,19.46
2023-08-17T10:11:08.414Z,19.54
2023-08-17T10:13:40.860Z,19.42
2023-08-17T10:16:20.934Z,19.22
2023-08-17T10:19:02.908Z,19.36
2023-08-17T10:21:32.904Z,19.58
2023-08-17T10:23:59.439Z,19.73
2023-08-17T10:26:26.812Z,19.53
2023-08-17T10:28:55.354Z,19.30
2023-08-17T10:31:22.369Z,19.55
2023-08-17T10:33:49.564Z,19.74
2023-08-17T10:36:16.736Z,19.99
2023-08-17T10:38:43.199Z,19.82
2023-08-17T10:41:11.026Z,19.83
2023-08-17T10:44:00.892Z,19.71
2023-08-17T10:46:38.577Z,19.63
2023-08-17T10:49:07.085Z,19.70
2023-08-17T10:51:34.743Z,19.78
2023-08-17T10:54:05.271Z,19.82
2023-08-17T10:56:32.091Z,19.85
2023-08-17T10:59:02.850Z,20.05
2023-08-17T11:01:37.074Z,19.98
2023-08-17T11:04:19.300Z,19.67
2023-08-17T11:06:46.432Z,20.04
2023-08-17T11:09:13.386Z,19.68
2023-08-17T11:11:40.091Z,19.80
2023-08-17T11:14:06.639Z,19.61
2023-08-17T11:16:33.172Z,19.81
2023-08-17T11:19:01.513Z,19.80
2023-08-17T11:21:28.243Z,19.62
2023-08-17T11:23:56.940Z,19.86
2023-08-17T11:26:23.677Z,19.75
2023-08-17T11:28:50.868Z,20.10
2023-08-17T11:31:17.512Z,19.97
2023-08-17T11:33:44.573Z,19.86
2023-08-17T11:36:11.437Z,19.97
2023-08-17T11:38:43.012Z,20.05
2023-08-17T11:41:10.429Z,20.52
2023-08-17T11:43:38.025Z,20.36
2023-08-17T11:46:06.056Z,20.57
2023-08-17T11:51:02.328Z,20.65
2023-08-17T11:53:35.026Z,20.99
2023-08-17T11:56:04.074Z,21.19
2023-08-17T11:58:46.637Z,21.38
2023-08-17T12:01:14.426Z,21.17
2023-08-17T12:03:42.618Z,21.00
2023-08-17T12:06:10.604Z,20.71
2023-08-17T12:08:37.236Z,20.77
2023-08-17T12:11:04.444Z,20.81
2023-08-17T12:13:35.260Z,20.61
2023-08-17T12:16:02.476Z,20.11
2023-08-17T12:18:29.044Z,20.14
2023-08-17T12:20:56.052Z,20.48
2023-08-17T12:23:22.738Z,20.40
2023-08-17T12:25:54.931Z,20.52
2023-08-17T12:28:21.564Z,20.76
2023-08-17T12:30:47.988Z,20.64
2023-08-17T12:33:14.475Z,20.76
2023-08-17T12:35:41.038Z,20.74
2023-08-17T12:38:07.500Z,21.02
2023-08-17T12:40:33.985Z,21.04
2023-08-17T12:43:00.433Z,21.57
2023-08-17T12:45:28.438Z,21.17
2023-08-17T12:47:55.343Z,21.28
2023-08-17T12:50:21.988Z,21.01
2023-08-17T12:52:48.460Z,20.52
2023-08-17T12:55:15.069Z,20.84
2023-08-17T12:57:41.548Z,20.94
2023-08-17T13:00:08.677Z,20.83
2023-08-17T13:02:35.200Z,21.00
2023-08-17T13:05:01.792Z,20.57
2023-08-17T13:07:28.225Z,20.80
2023-08-17T13:09:54.674Z,20.64
2023-08-17T13:12:21.096Z,20.53
2023-08-17T13:14:47.526Z,20.66
2023-08-17T13:17:15.588Z,20.35
2023-08-17T13:19:42.214Z,20.50
2023-08-17T13:22:09.892Z,20.53
2023-08-17T13:24:36.334Z,20.36
2023-08-17T13:27:03.309Z,20.53
2023-08-17T13:29:29.773Z,20.49
2023-08-17T13:31:56.210Z,20.50
2023-08-17T13:34:22.813Z,20.14
2023-08-17T13:36:49.274Z,20.11
2023-08-17T13:39:16.066Z,19.88
2023-08-17T13:41:43.755Z,19.84
2023-08-17T13:44:10.329Z,19.93
2023-08-17T13:46:37.151Z,20.13
2023-08-17T13:49:05.308Z,20.06
2023-08-17T13:51:31.730Z,19.64
2023-08-17T13:53:58.195Z,19.56
2023-08-17T13:56:25.105Z,19.53
2023-08-17T13:58:52.710Z,19.52
2023-08-17T14:01:19.653Z,19.57
2023-08-17T14:03:46.352Z,19.38
2023-08-17T14:06:12.944Z,19.61
2023-08-17T14:08:39.593Z,19.43
2023-08-17T14:11:07.546Z,19.46
2023-08-17T14:13:35.182Z,19.61
2023-08-17T14:16:01.763Z,19.35
2023-08-17T14:18:28.259Z,19.37
2023-08-17T14:20:54.846Z,19.35
2023-08-17T14:23:21.333Z,19.08
2023-08-17T14:25:47.774Z,19.08
2023-08-17T14:28:14.307Z,19.23
2023-08-17T14:30:40.880Z,19.15
2023-08-17T14:33:07.502Z,19.22
2023-08-17T14:35:34.029Z,19.41
2023-08-17T14:38:02.052Z,19.34
2023-08-17T14:40:28.661Z,19.40
2023-08-17T14:42:55.193Z,19.70
2023-08-17T14:45:21.746Z,19.75
2023-08-17T14:47:48.191Z,19.98
2023-08-17T14:50:15.106Z,19.69
2023-08-17T14:52:42.215Z,19.71
2023-08-17T14:55:10.040Z,19.80
2023-08-17T14:57:36.659Z,19.68
2023-08-17T15:00:03.605Z,19.46
2023-08-17T15:02:30.350Z,19.50
2023-08-17T15:04:56.914Z,19.37
2023-08-17T15:07:23.421Z,19.35
2023-08-17T15:09:50.046Z,19.36
2023-08-17T15:12:16.659Z,19.47
2023-08-17T15:14:43.135Z,19.23
2023-08-17T15:17:13.374Z,19.61
2023-08-17T15:19:41.227Z,19.63
2023-08-17T15:22:08.205Z,19.86
2023-08-17T15:24:34.893Z,19.58
2023-08-17T15:27:01.351Z,19.32
2023-08-17T15:29:27.784Z,19.46
2023-08-17T15:31:54.284Z,19.71
2023-08-17T15:34:20.779Z,19.53
2023-08-17T15:36:47.361Z,19.19
2023-08-17T15:39:13.861Z,19.45
2023-08-17T15:41:40.338Z,19.35
2023-08-17T15:44:06.944Z,19.22
2023-08-17T15:46:33.407Z,19.24
2023-08-17T15:48:59.898Z,19.32
2023-08-17T15:51:28.646Z,19.25
2023-08-17T15:53:55.800Z,19.44
2023-08-17T15:56:22.273Z,19.53
2023-08-17T15:58:48.804Z,19.55
2023-08-17T16:01:15.866Z,19.17
2023-08-17T16:03:42.803Z,19.21
2023-08-17T16:06:09.424Z,19.18
2023-08-17T16:08:48.810Z,19.28
2023-08-17T16:11:15.930Z,19.28
2023-08-17T16:13:45.723Z,19.37
2023-08-17T16:16:12.485Z,19.37
2023-08-17T16:18:39.054Z,19.46
2023-08-17T16:21:07.489Z,19.22
2023-08-17T16:23:40.204Z,19.16
2023-08-17T16:26:06.621Z,19.23
2023-08-17T16:28:33.048Z,19.33
2023-08-17T16:31:04.416Z,19.61
2023-08-17T16:33:31.106Z,19.88
2023-08-17T16:35:57.607Z,19.85
2023-08-17T16:38:25.343Z,19.74
2023-08-17T16:40:51.813Z,19.94
2023-08-17T16:43:21.006Z,19.94
2023-08-17T16:45:47.611Z,19.97
2023-08-17T16:48:14.145Z,19.87
2023-08-17T16:50:40.658Z,19.40
2023-08-17T16:53:07.072Z,19.07
2023-08-17T16:55:35.264Z,18.99
2023-08-17T16:58:02.508Z,18.92
2023-08-17T17:00:30.858Z,18.96
2023-08-17T17:02:57.289Z,18.93
2023-08-17T17:05:23.848Z,18.81
2023-08-17T17:07:50.299Z,18.85
2023-08-17T17:10:19.577Z,18.95
2023-08-17T17:12:46.064Z,19.18
2023-08-17T17:15:12.564Z,19.18
2023-08-17T17:17:39.091Z,19.16
2023-08-17T17:20:06.203Z,18.98
2023-08-17T17:22:32.709Z,18.66
2023-08-17T17:24:59.220Z,18.79
2023-08-17T17:27:25.904Z,18.81
2023-08-17T17:29:52.584Z,18.65
2023-08-17T17:32:19.012Z,18.41
2023-08-17T17:34:45.447Z,18.65
2023-08-17T17:37:11.864Z,18.46
2023-08-17T17:39:38.312Z,18.74
2023-08-17T17:42:04.938Z,18.95
2023-08-17T17:44:31.423Z,18.94
2023-08-17T17:46:57.897Z,18.66
2023-08-17T17:49:24.394Z,18.41
2023-08-17T17:51:51.106Z,18.60
2023-08-17T17:54:17.655Z,18.61
2023-08-17T17:56:44.952Z,18.77
2023-08-17T17:59:12.325Z,18.76
2023-08-17T18:01:39.480Z,18.75
2023-08-17T18:04:06.096Z,18.93
2023-08-17T18:06:34.813Z,18.72
2023-08-17T18:09:01.489Z,18.80
2023-08-17T18:11:28.056Z,18.76
2023-08-17T18:13:54.516Z,18.48
2023-08-17T18:16:20.994Z,18.33
2023-08-17T18:18:47.533Z,17.92
2023-08-17T18:21:13.957Z,18.20
2023-08-17T18:23:40.454Z,18.21
2023-08-17T18:26:06.924Z,18.41
2023-08-17T18:28:33.397Z,18.22
2023-08-17T18:31:00.046Z,18.18
2023-08-17T18:33:26.542Z,18.15
2023-08-17T18:35:54.081Z,17.95
2023-08-17T18:38:22.657Z,18.01
2023-08-17T18:40:49.938Z,17.84
2023-08-17T18:43:17.439Z,17.94
2023-08-17T18:45:43.898Z,17.76
2023-08-17T18:48:10.350Z,17.76
2023-08-17T18:50:36.835Z,17.62
2023-08-17T18:53:04.410Z,17.42
2023-08-17T18:55:32.498Z,17.56
2023-08-17T18:57:59.100Z,17.42
2023-08-17T19:00:25.544Z,17.43
2023-08-17T19:02:52.124Z,17.19
2023-08-17T19:05:18.875Z,17.15
2023-08-17T19:07:45.332Z,17.10
2023-08-17T19:10:11.806Z,17.28
2023-08-17T19:12:38.272Z,17.14
2023-08-17T19:15:05.098Z,17.15
2023-08-17T19:17:32.485Z,17.18
2023-08-17T19:19:59.449Z,17.13
2023-08-17T19:22:25.883Z,17.14
2023-08-17T19:24:52.331Z,17.34
2023-08-17T19:27:19.060Z,17.11
2023-08-17T19:29:45.547Z,17.27
2023-08-17T19:32:11.973Z,17.31
2023-08-17T19:34:38.415Z,17.58
2023-08-17T19:37:04.982Z,17.50
2023-08-17T19:39:31.464Z,17.60
2023-08-17T19:41:57.960Z,17.35
2023-08-17T19:44:24.578Z,17.07
2023-08-17T19:46:50.996Z,17.26
2023-08-17T19:49:17.459Z,17.44
2023-08-17T19:51:44.583Z,17.20
2023-08-17T19:54:11.672Z,17.44
2023-08-17T19:56:39.484Z,17.34
2023-08-17T19:59:06.236Z,17.50
2023-08-17T20:01:37.817Z,17.51
2023-08-17T20:04:05.268Z,17.63
2023-08-17T20:06:32.190Z,17.32
2023-08-17T20:08:58.698Z,17.33
2023-08-17T20:11:25.849Z,17.28
2023-08-17T20:13:52.285Z,17.52
2023-08-17T20:16:18.949Z,17.39
2023-08-17T20:18:46.841Z,17.49
2023-08-17T20:21:13.534Z,17.64
2023-08-17T20:23:41.351Z,17.61
2023-08-17T20:26:07.819Z,17.70
2023-08-17T20:28:34.238Z,17.57
2023-08-17T20:31:00.886Z,17.88
2023-08-17T20:33:28.044Z,17.75
2023-08-17T20:35:55.658Z,17.72
2023-08-17T20:38:22.998Z,17.74
2023-08-17T20:40:51.740Z,17.61
2023-08-17T20:43:18.766Z,17.72
2023-08-17T20:45:45.356Z,17.65
2023-08-17T20:48:12.716Z,17.76
2023-08-17T20:50:40.214Z,17.67
2023-08-17T20:53:07.227Z,17.79
2023-08-17T20:55:35.964Z,17.77
2023-08-17T20:58:02.912Z,17.56
2023-08-17T21:00:30.165Z,17.79
2023-08-17T21:02:57.079Z,17.83
2023-08-17T21:05:24.002Z,17.66
2023-08-17T21:07:50.493Z,17.71
2023-08-17T21:10:17.743Z,18.05
2023-08-17T21:12:44.183Z,18.15
2023-08-17T21:15:10.947Z,18.21
2023-08-17T21:17:37.408Z,17.98
2023-08-17T21:20:05.288Z,18.13
2023-08-17T21:22:32.284Z,18.14
2023-08-17T21:24:58.788Z,18.03
2023-08-17T21:27:25.302Z,18.25
2023-08-17T21:29:52.268Z,18.11
2023-08-17T21:32:19.680Z,18.16
2023-08-17T21:34:49.195Z,18.08
2023-08-17T21:37:26.473Z,17.95
2023-08-17T21:39:56.163Z,18.03
2023-08-17T21:42:23.056Z,17.89
2023-08-17T21:44:50.793Z,17.97
2023-08-17T21:47:17.519Z,17.93
2023-08-17T21:49:47.645Z,18.26
2023-08-17T21:52:14.317Z,18.22
2023-08-17T21:54:40.748Z,18.35
2023-08-17T21:57:07.238Z,18.57
2023-08-17T21:59:33.718Z,18.42
2023-08-17T22:02:00.365Z,18.45
2023-08-17T22:04:26.784Z,18.23
2023-08-17T22:06:53.319Z,18.26
2023-08-17T22:09:20.862Z,18.03
2023-08-17T22:11:47.306Z,18.08
2023-08-17T22:14:13.760Z,18.06
2023-08-17T22:16:40.273Z,18.00
2023-08-17T22:19:07.096Z,18.19
2023-08-17T22:21:33.553Z,18.39
2023-08-17T22:24:01.124Z,18.30
2023-08-17T22:26:27.571Z,18.46
2023-08-17T22:28:54.039Z,18.38
2023-08-17T22:31:20.666Z,18.63
2023-08-17T22:33:47.162Z,18.67
2023-08-17T22:36:13.620Z,18.54
2023-08-17T22:38:40.940Z,18.84
2023-08-17T22:41:07.403Z,18.60
2023-08-17T22:43:33.884Z,18.80
2023-08-17T22:46:03.652Z,18.69
2023-08-17T22:48:30.224Z,18.69
2023-08-17T22:50:56.726Z,18.80
2023-08-17T22:53:23.168Z,18.71
2023-08-17T22:55:49.624Z,18.63
2023-08-17T22:58:16.122Z,18.76
2023-08-17T23:00:42.573Z,18.76
2023-08-17T23:03:09.142Z,18.70
2023-08-17T23:05:35.744Z,18.68
2023-08-17T23:08:02.325Z,18.72
2023-08-17T23:10:31.499Z,18.72
2023-08-17T23:12:57.936Z,18.65
2023-08-17T23:15:24.497Z,18.74
2023-08-17T23:17:51.045Z,18.58
2023-08-17T23:20:17.618Z,18.63
2023-08-17T23:22:44.062Z,18.63
2023-08-17T23:25:10.567Z,18.75
2023-08-17T23:27:37.250Z,18.80
2023-08-17T23:30:04.397Z,18.64
2023-08-17T23:32:30.966Z,18.80
2023-08-17T23:34:57.468Z,18.92
2023-08-17T23:37:24.040Z,18.93
2023-08-17T23:39:50.873Z,18.78
2023-08-17T23:42:17.367Z,19.05
2023-08-17T23:44:43.830Z,18.99
2023-08-17T23:47:10.739Z,18.82
2023-08-17T23:49:38.459Z,18.95
2023-08-17T23:52:07.047Z,18.75
2023-08-17T23:54:33.554Z,18.96
2023-08-17T23:57:00.009Z,18.80
2023-08-17T23:59:26.471Z,18.92
